createdAt,value
2019-05-17T00:01:04.325Z,24.10
2019-05-17T00:05:40.077Z,22.60
2019-05-17T00:10:17.370Z,21.48
2019-05-17T00:14:53.375Z,22.17
2019-05-17T00:19:29.161Z,24.35
2019-05-17T00:24:06.628Z,25.27
2019-05-17T00:28:42.367Z,22.98
2019-05-17T00:33:18.125Z,26.10
2019-05-17T00:37:53.905Z,23.20
2019-05-17T00:42:29.662Z,21.55
2019-05-17T00:47:06.570Z,22.42
2019-05-17T00:51:42.484Z,22.00
2019-05-17T00:56:18.265Z,24.20
2019-05-17T01:00:56.897Z,22.07
2019-05-17T01:05:31.481Z,23.05
2019-05-17T01:10:07.897Z,29.65
2019-05-17T01:14:43.679Z,20.15
2019-05-17T01:19:19.424Z,23.35
2019-05-17T01:23:56.207Z,24.00
2019-05-17T01:28:32.118Z,24.30
2019-05-17T01:33:07.893Z,23.40
2019-05-17T01:37:43.656Z,21.82
2019-05-17T01:42:19.429Z,20.95
2019-05-17T01:46:56.697Z,21.87
2019-05-17T01:51:32.658Z,23.07
2019-05-17T01:56:08.417Z,23.95
2019-05-17T02:00:46.389Z,25.48
2019-05-17T02:05:21.633Z,27.87
2019-05-17T02:09:57.412Z,26.87
2019-05-17T02:14:33.278Z,31.42
2019-05-17T02:19:09.069Z,28.67
2019-05-17T02:23:46.921Z,25.55
2019-05-17T02:28:22.288Z,24.37
2019-05-17T02:32:58.438Z,24.12
2019-05-17T02:37:34.212Z,26.00
2019-05-17T02:42:13.575Z,22.22
2019-05-17T02:46:47.517Z,26.65
2019-05-17T02:51:23.867Z,22.17
2019-05-17T02:56:02.974Z,21.40
2019-05-17T03:00:37.309Z,22.80
2019-05-17T03:05:13.780Z,20.17
2019-05-17T03:09:49.525Z,17.12
2019-05-17T03:14:25.312Z,16.75
2019-05-17T03:19:04.171Z,19.05
2019-05-17T03:23:38.598Z,21.33
2019-05-17T03:28:14.353Z,17.73
2019-05-17T03:32:56.150Z,26.20
2019-05-17T03:37:36.686Z,24.45
2019-05-17T03:42:05.926Z,23.47
2019-05-17T03:46:42.612Z,27.90
2019-05-17T03:51:18.533Z,22.93
2019-05-17T03:55:54.370Z,23.60
2019-05-17T04:00:30.193Z,21.95
2019-05-17T04:05:06.064Z,26.07
2019-05-17T04:09:43.715Z,28.32
2019-05-17T04:14:22.312Z,30.95
2019-05-17T04:18:57.139Z,26.95
2019-05-17T04:23:33.857Z,29.55
2019-05-17T04:28:13.337Z,23.15
2019-05-17T04:32:47.437Z,28.75
2019-05-17T04:37:23.299Z,25.65
2019-05-17T04:41:59.049Z,25.15
2019-05-17T04:46:34.819Z,32.33
2019-05-17T04:51:13.270Z,32.65
2019-05-17T04:55:48.116Z,27.75
2019-05-17T05:00:23.868Z,30.55
2019-05-17T05:05:02.889Z,24.55
2019-05-17T05:09:37.934Z,30.02
2019-05-17T05:14:13.725Z,39.48
2019-05-17T05:18:51.908Z,43.83
2019-05-17T05:23:27.079Z,33.78
2019-05-17T05:28:02.828Z,29.45
2019-05-17T05:32:38.625Z,33.70
2019-05-17T05:37:14.376Z,26.93
2019-05-17T05:41:51.852Z,35.15
2019-05-17T05:46:27.669Z,27.30
2019-05-17T05:51:05.081Z,32.83
2019-05-17T05:55:42.775Z,27.77
2019-05-17T06:00:18.729Z,30.97
2019-05-17T06:04:54.479Z,27.45
2019-05-17T06:09:31.777Z,28.47
2019-05-17T06:14:07.704Z,50.70
2019-05-17T06:18:43.484Z,30.57
2019-05-17T06:23:19.245Z,37.70
2019-05-17T06:27:55.009Z,31.93
2019-05-17T06:32:31.694Z,27.30
2019-05-17T06:37:07.626Z,27.75
2019-05-17T06:41:43.378Z,32.63
2019-05-17T06:46:21.810Z,27.17
2019-05-17T06:50:56.588Z,25.23
2019-05-17T06:55:32.403Z,23.45
2019-05-17T07:00:15.697Z,23.05
2019-05-17T07:04:46.224Z,23.92
2019-05-17T07:09:21.973Z,22.82
2019-05-17T07:13:59.648Z,19.87
2019-05-17T07:18:35.237Z,18.35
2019-05-17T07:23:11.027Z,19.95
2019-05-17T07:27:46.905Z,19.60
2019-05-17T07:32:22.950Z,14.03
2019-05-17T07:36:59.725Z,17.25
2019-05-17T07:41:35.581Z,21.12
2019-05-17T07:46:11.345Z,18.07
2019-05-17T07:50:47.128Z,19.48
2019-05-17T07:55:23.178Z,15.00
2019-05-17T07:59:59.916Z,17.73
2019-05-17T08:04:35.898Z,24.90
2019-05-17T08:09:13.904Z,14.07
2019-05-17T08:13:50.516Z,16.27
2019-05-17T08:18:26.500Z,20.17
2019-05-17T08:23:05.065Z,14.93
2019-05-17T08:27:40.583Z,16.85
2019-05-17T08:32:16.590Z,21.52
2019-05-17T08:36:52.373Z,17.90
2019-05-17T08:41:30.827Z,16.95
2019-05-17T08:46:05.636Z,16.70
2019-05-17T08:50:41.387Z,17.70
2019-05-17T08:55:17.176Z,17.23
2019-05-17T08:59:53.021Z,21.45
2019-05-17T09:04:29.756Z,15.75
2019-05-17T09:09:06.996Z,25.35
2019-05-17T09:13:54.738Z,25.77
2019-05-17T09:18:20.774Z,18.60
2019-05-17T09:22:56.626Z,13.70
2019-05-17T09:27:32.396Z,18.80
2019-05-17T09:32:09.519Z,15.85
2019-05-17T09:36:45.418Z,18.50
2019-05-17T09:41:21.226Z,13.62
2019-05-17T09:45:56.994Z,15.18
2019-05-17T09:50:32.793Z,13.88
2019-05-17T09:55:09.879Z,11.40
2019-05-17T09:59:45.898Z,9.73
2019-05-17T10:04:21.645Z,9.95
2019-05-17T10:09:00.040Z,11.93
2019-05-17T10:13:35.064Z,14.28
2019-05-17T10:18:11.317Z,8.35
2019-05-17T10:22:47.179Z,7.97
2019-05-17T10:27:22.993Z,7.12
2019-05-17T10:31:59.872Z,13.05
2019-05-17T10:36:35.810Z,11.18
2019-05-17T10:41:11.666Z,8.53
2019-05-17T10:45:47.433Z,6.08
2019-05-17T10:50:23.184Z,6.65
2019-05-17T10:54:59.842Z,4.10
2019-05-17T10:59:35.790Z,2.70
2019-05-17T11:04:11.555Z,3.67
2019-05-17T11:08:47.309Z,5.25
2019-05-17T11:13:23.089Z,3.83
2019-05-17T11:17:58.837Z,3.47
2019-05-17T11:22:34.601Z,2.67
2019-05-17T11:27:10.362Z,4.20
2019-05-17T11:31:46.161Z,1.85
2019-05-17T11:36:21.935Z,2.90
2019-05-17T11:40:57.765Z,3.08
2019-05-17T11:45:33.537Z,3.05
2019-05-17T11:50:09.930Z,2.87
2019-05-17T11:54:45.694Z,3.58
2019-05-17T11:59:21.476Z,2.85
2019-05-17T12:03:57.221Z,2.98
2019-05-17T12:08:32.997Z,4.10
2019-05-17T12:13:08.757Z,2.92
2019-05-17T12:17:44.532Z,2.70
2019-05-17T12:22:20.290Z,2.83
2019-05-17T12:26:56.056Z,2.47
2019-05-17T12:31:31.809Z,2.45
2019-05-17T12:36:07.603Z,2.65
2019-05-17T12:40:43.353Z,4.72
2019-05-17T12:45:19.370Z,1.87
2019-05-17T12:49:55.116Z,2.25
2019-05-17T12:54:30.901Z,2.40
2019-05-17T12:59:06.719Z,3.25
2019-05-17T13:03:42.538Z,3.50
2019-05-17T13:08:18.359Z,3.42
2019-05-17T13:12:54.134Z,3.52
2019-05-17T13:17:29.885Z,2.60
2019-05-17T13:22:05.768Z,2.85
2019-05-17T13:26:41.508Z,2.52
2019-05-17T13:31:17.289Z,2.37
2019-05-17T13:35:53.041Z,4.33
2019-05-17T13:40:28.881Z,3.22
2019-05-17T13:45:04.844Z,1.87
2019-05-17T13:49:40.613Z,3.08
2019-05-17T13:54:16.367Z,2.10
2019-05-17T13:58:52.154Z,2.35
2019-05-17T14:03:27.975Z,1.17
2019-05-17T14:08:03.775Z,1.50
2019-05-17T14:12:39.538Z,2.27
2019-05-17T14:17:15.387Z,2.67
2019-05-17T14:21:51.206Z,3.42
2019-05-17T14:26:27.042Z,1.47
2019-05-17T14:31:02.787Z,2.27
2019-05-17T14:35:38.577Z,0.90
2019-05-17T14:40:15.006Z,1.95
2019-05-17T14:44:50.829Z,2.02
2019-05-17T14:49:26.573Z,2.47
2019-05-17T14:54:02.361Z,1.87
2019-05-17T14:58:38.103Z,2.92
2019-05-17T15:03:13.872Z,1.57
2019-05-17T15:07:49.632Z,1.72
2019-05-17T15:12:28.616Z,2.00
2019-05-17T15:17:03.089Z,1.07
2019-05-17T15:21:38.929Z,2.25
2019-05-17T15:26:14.668Z,0.85
2019-05-17T15:30:50.445Z,1.85
2019-05-17T15:35:26.189Z,1.55
2019-05-17T15:40:02.113Z,1.55
2019-05-17T15:44:38.004Z,4.33
2019-05-17T15:49:13.873Z,3.35
2019-05-17T15:53:49.632Z,1.40
2019-05-17T15:58:25.405Z,1.37
2019-05-17T16:03:01.155Z,3.20
2019-05-17T16:07:36.949Z,3.77
2019-05-17T16:12:12.701Z,1.45
2019-05-17T16:16:48.540Z,0.88
2019-05-17T16:21:24.293Z,3.33
2019-05-17T16:26:00.066Z,4.60
2019-05-17T16:30:35.819Z,3.65
2019-05-17T16:35:11.665Z,0.90
2019-05-17T16:39:47.413Z,4.65
2019-05-17T16:44:23.202Z,2.58
2019-05-17T16:48:58.959Z,1.57
2019-05-17T16:53:34.765Z,1.07
2019-05-17T16:58:10.512Z,2.58
2019-05-17T17:02:46.281Z,1.47
2019-05-17T17:07:22.041Z,2.27
2019-05-17T17:11:57.800Z,2.22
2019-05-17T17:16:33.565Z,2.85
2019-05-17T17:21:09.405Z,0.60
2019-05-17T17:25:45.159Z,1.15
2019-05-17T17:30:21.743Z,1.07
2019-05-17T17:34:57.493Z,2.95
2019-05-17T17:39:33.281Z,0.80
2019-05-17T17:44:09.034Z,1.47
2019-05-17T17:48:45.950Z,1.05
2019-05-17T17:53:21.861Z,1.90
2019-05-17T17:57:57.721Z,0.33
2019-05-17T18:02:33.474Z,0.20
2019-05-17T18:07:09.234Z,0.80
2019-05-17T18:11:44.989Z,0.98
2019-05-17T18:16:20.772Z,0.37
2019-05-17T18:20:56.632Z,0.85
2019-05-17T18:25:32.408Z,0.82
2019-05-17T18:30:08.159Z,2.22
2019-05-17T18:34:43.940Z,1.52
2019-05-17T18:39:19.689Z,2.35
2019-05-17T18:43:55.469Z,1.10
2019-05-17T18:48:31.289Z,3.33
2019-05-17T18:53:15.974Z,1.85
2019-05-17T18:57:44.592Z,1.50
2019-05-17T19:02:20.397Z,0.95
2019-05-17T19:06:56.153Z,1.20
2019-05-17T19:11:31.951Z,0.30
2019-05-17T19:16:07.706Z,0.98
2019-05-17T19:20:43.471Z,1.07
2019-05-17T19:25:19.549Z,1.35
2019-05-17T19:29:55.385Z,1.92
2019-05-17T19:34:31.144Z,0.42
2019-05-17T19:39:06.937Z,1.45
2019-05-17T19:43:42.680Z,1.30
2019-05-17T19:48:19.887Z,1.70
2019-05-17T19:52:55.897Z,1.62
2019-05-17T19:57:31.679Z,1.40
2019-05-17T20:02:07.441Z,1.65
2019-05-17T20:06:43.269Z,1.42
2019-05-17T20:11:33.385Z,1.17
2019-05-17T20:15:56.517Z,0.98
2019-05-17T20:20:32.275Z,0.80
2019-05-17T20:25:10.363Z,2.05
2019-05-17T20:29:46.109Z,0.90
2019-05-17T20:34:21.893Z,1.35
2019-05-17T20:38:57.641Z,1.10
2019-05-17T20:43:33.431Z,0.93
2019-05-17T20:48:10.012Z,2.25
2019-05-17T20:52:45.784Z,1.25
2019-05-17T20:57:21.529Z,1.07
2019-05-17T21:01:57.308Z,1.10
2019-05-17T21:06:33.036Z,1.27
2019-05-17T21:11:08.865Z,1.15
2019-05-17T21:15:47.923Z,0.98
2019-05-17T21:20:22.101Z,1.70
2019-05-17T21:24:57.909Z,0.60
2019-05-17T21:29:33.692Z,2.05
2019-05-17T21:34:09.441Z,2.22
2019-05-17T21:38:45.217Z,2.33
2019-05-17T21:43:21.009Z,1.17
2019-05-17T21:47:56.808Z,1.20
2019-05-17T21:52:32.564Z,1.50
2019-05-17T21:57:08.457Z,1.32
2019-05-17T22:01:44.317Z,0.93
2019-05-17T22:06:20.099Z,1.62
2019-05-17T22:10:55.840Z,3.55
2019-05-17T22:15:31.714Z,1.47
2019-05-17T22:20:07.468Z,3.22
2019-05-17T22:24:43.245Z,2.55
2019-05-17T22:29:19.001Z,2.98
2019-05-17T22:33:54.796Z,3.62
2019-05-17T22:38:30.544Z,5.03
2019-05-17T22:43:06.330Z,3.80
2019-05-17T22:47:42.156Z,3.35
2019-05-17T22:52:17.938Z,3.92
2019-05-17T22:56:53.701Z,8.18
2019-05-17T23:01:29.488Z,4.90
2019-05-17T23:06:05.267Z,4.70
2019-05-17T23:10:41.025Z,3.85
2019-05-17T23:15:16.789Z,4.10
2019-05-17T23:19:52.615Z,3.22
2019-05-17T23:24:28.359Z,3.83
2019-05-17T23:29:04.234Z,4.78
2019-05-17T23:33:39.988Z,5.30
2019-05-17T23:38:15.757Z,4.00
2019-05-17T23:42:51.497Z,4.92
2019-05-17T23:47:27.290Z,5.05
2019-05-17T23:52:03.041Z,6.22
2019-05-17T23:56:38.877Z,4.67
